createdAt,value
2019-02-10T00:00:16.152Z,24.32
2019-02-10T00:01:16.188Z,24.37
2019-02-10T00:02:16.239Z,24.34
2019-02-10T00:03:16.284Z,24.39
2019-02-10T00:04:16.332Z,24.27
2019-02-10T00:05:16.374Z,24.38
2019-02-10T00:06:24.286Z,24.37
2019-02-10T00:07:16.470Z,24.24
2019-02-10T00:08:16.554Z,24.32
2019-02-10T00:09:16.592Z,24.29
2019-02-10T00:10:16.619Z,24.31
2019-02-10T00:11:16.668Z,24.29
2019-02-10T00:12:16.719Z,24.23
2019-02-10T00:13:16.756Z,24.24
2019-02-10T00:14:16.799Z,24.19
2019-02-10T00:15:16.873Z,24.22
2019-02-10T00:16:16.905Z,24.10
2019-02-10T00:17:16.936Z,24.12
2019-02-10T00:18:17.005Z,24.10
2019-02-10T00:19:17.061Z,24.17
2019-02-10T00:20:17.095Z,23.92
2019-02-10T00:21:17.151Z,24.14
2019-02-10T00:22:17.204Z,24.10
2019-02-10T00:23:17.240Z,24.01
2019-02-10T00:24:17.281Z,24.08
2019-02-10T00:25:17.339Z,24.08
2019-02-10T00:26:17.382Z,24.08
2019-02-10T00:27:17.425Z,24.08
2019-02-10T00:28:17.496Z,24.07
2019-02-10T00:29:17.524Z,24.10
2019-02-10T00:30:17.616Z,24.02
2019-02-10T00:31:17.620Z,24.05
2019-02-10T00:32:17.669Z,24.04
2019-02-10T00:33:17.695Z,23.98
2019-02-10T00:34:17.755Z,24.04
2019-02-10T00:35:17.808Z,24.02
2019-02-10T00:36:17.847Z,23.97
2019-02-10T00:37:17.921Z,23.97
2019-02-10T00:38:17.993Z,23.87
2019-02-10T00:39:18.011Z,23.87
2019-02-10T00:40:18.052Z,23.80
2019-02-10T00:41:18.100Z,23.86
2019-02-10T00:42:18.144Z,23.80
2019-02-10T00:43:18.180Z,23.76
2019-02-10T00:44:18.244Z,23.77
2019-02-10T00:45:18.281Z,23.70
2019-02-10T00:46:18.329Z,23.65
2019-02-10T00:47:18.379Z,23.80
2019-02-10T00:48:18.440Z,23.72
2019-02-10T00:49:18.509Z,23.70
2019-02-10T00:50:18.544Z,23.70
2019-02-10T00:51:18.586Z,23.68
2019-02-10T00:52:18.613Z,23.72
2019-02-10T00:53:18.658Z,23.72
2019-02-10T00:54:18.741Z,23.68
2019-02-10T00:55:18.757Z,23.65
2019-02-10T00:56:18.818Z,23.61
2019-02-10T00:57:18.860Z,23.57
2019-02-10T00:58:18.914Z,23.58
2019-02-10T00:59:18.946Z,23.57
2019-02-10T01:00:18.996Z,23.53
2019-02-10T01:01:19.051Z,23.55
2019-02-10T01:02:19.085Z,23.53
2019-02-10T01:03:19.244Z,23.50
2019-02-10T01:04:19.195Z,23.55
2019-02-10T01:05:19.230Z,23.57
2019-02-10T01:06:19.293Z,23.55
2019-02-10T01:07:19.333Z,23.55
2019-02-10T01:08:19.374Z,23.55
2019-02-10T01:09:19.411Z,23.55
2019-02-10T01:10:19.476Z,23.52
2019-02-10T01:11:19.529Z,23.52
2019-02-10T01:12:19.578Z,23.52
2019-02-10T01:13:19.624Z,23.47
2019-02-10T01:14:19.660Z,23.46
2019-02-10T01:15:19.722Z,23.46
2019-02-10T01:16:19.769Z,23.42
2019-02-10T01:17:19.819Z,23.42
2019-02-10T01:18:19.849Z,23.40
2019-02-10T01:19:19.884Z,23.40
2019-02-10T01:20:19.938Z,23.38
2019-02-10T01:21:19.993Z,23.42
2019-02-10T01:22:20.039Z,23.40
2019-02-10T01:23:20.085Z,23.39
2019-02-10T01:24:20.131Z,23.31
2019-02-10T01:25:20.178Z,23.34
2019-02-10T01:26:20.238Z,23.38
2019-02-10T01:27:20.274Z,23.32
2019-02-10T01:28:20.342Z,23.34
2019-02-10T01:29:20.367Z,23.32
2019-02-10T01:30:20.416Z,23.26
2019-02-10T01:31:20.453Z,23.31
2019-02-10T01:32:20.498Z,23.27
2019-02-10T01:33:20.581Z,23.19
2019-02-10T01:34:20.601Z,23.19
2019-02-10T01:35:20.658Z,23.23
2019-02-10T01:36:20.707Z,23.15
2019-02-10T01:37:20.746Z,23.15
2019-02-10T01:38:20.780Z,23.19
2019-02-10T01:39:20.859Z,23.19
2019-02-10T01:40:20.901Z,23.20
2019-02-10T01:41:20.940Z,23.20
2019-02-10T01:42:20.995Z,23.19
2019-02-10T01:43:21.026Z,23.29
2019-02-10T01:44:21.079Z,23.32
2019-02-10T01:45:21.150Z,23.31
2019-02-10T01:46:21.222Z,23.27
2019-02-10T01:47:21.223Z,23.39
2019-02-10T01:48:21.269Z,23.32
2019-02-10T01:49:21.308Z,23.34
2019-02-10T01:50:21.410Z,23.34
2019-02-10T01:51:21.412Z,23.35
2019-02-10T01:52:21.447Z,23.34
2019-02-10T01:53:21.513Z,23.49
2019-02-10T01:54:21.534Z,23.39
2019-02-10T01:55:21.614Z,23.38
2019-02-10T01:56:21.650Z,23.38
2019-02-10T01:57:21.676Z,23.42
2019-02-10T01:58:21.744Z,23.32
2019-02-10T01:59:21.797Z,23.38
2019-02-10T02:00:21.887Z,23.38
2019-02-10T02:01:21.877Z,23.35
2019-02-10T02:02:21.909Z,23.35
2019-02-10T02:03:21.990Z,23.26
2019-02-10T02:04:22.023Z,23.32
2019-02-10T02:05:22.063Z,23.22
2019-02-10T02:06:22.127Z,23.26
2019-02-10T02:07:22.224Z,23.12
2019-02-10T02:08:22.230Z,23.15
2019-02-10T02:09:22.240Z,23.15
2019-02-10T02:10:22.307Z,23.23
2019-02-10T02:11:22.332Z,23.14
2019-02-10T02:12:22.390Z,23.19
2019-02-10T02:13:22.440Z,23.19
2019-02-10T02:14:22.509Z,23.19
2019-02-10T02:15:22.535Z,23.22
2019-02-10T02:16:22.585Z,23.12
2019-02-10T02:17:22.639Z,23.27
2019-02-10T02:18:22.678Z,23.19
2019-02-10T02:19:22.755Z,23.20
2019-02-10T02:20:22.790Z,23.19
2019-02-10T02:21:22.833Z,23.11
2019-02-10T02:22:22.878Z,23.11
2019-02-10T02:23:22.926Z,23.09
2019-02-10T02:24:22.973Z,23.09
2019-02-10T02:25:23.022Z,23.01
2019-02-10T02:26:23.042Z,23.05
2019-02-10T02:27:23.118Z,23.05
2019-02-10T02:28:23.157Z,22.93
2019-02-10T02:29:23.202Z,22.99
2019-02-10T02:30:23.298Z,22.99
2019-02-10T02:31:23.309Z,22.89
2019-02-10T02:32:23.325Z,23.01
2019-02-10T02:33:23.382Z,22.87
2019-02-10T02:34:23.441Z,22.96
2019-02-10T02:35:23.525Z,22.89
2019-02-10T02:36:23.538Z,22.90
2019-02-10T02:37:23.574Z,22.96
2019-02-10T02:38:23.605Z,22.86
2019-02-10T02:39:23.673Z,22.87
2019-02-10T02:40:23.704Z,22.94
2019-02-10T02:41:23.757Z,22.86
2019-02-10T02:42:23.812Z,22.94
2019-02-10T02:43:23.862Z,22.94
2019-02-10T02:44:23.906Z,22.83
2019-02-10T02:45:23.980Z,22.84
2019-02-10T02:46:23.985Z,22.80
2019-02-10T02:47:24.061Z,22.82
2019-02-10T02:48:24.083Z,22.78
2019-02-10T02:49:24.196Z,22.75
2019-02-10T02:50:24.167Z,22.62
2019-02-10T02:51:24.243Z,22.69
2019-02-10T02:52:24.325Z,22.72
2019-02-10T02:53:24.373Z,22.68
2019-02-10T02:54:24.429Z,22.64
2019-02-10T02:55:24.414Z,22.56
2019-02-10T02:56:24.481Z,22.65
2019-02-10T02:57:24.503Z,22.67
2019-02-10T02:58:24.564Z,22.62
2019-02-10T02:59:24.611Z,22.59
2019-02-10T03:00:24.645Z,22.49
2019-02-10T03:01:24.707Z,22.54
2019-02-10T03:02:24.742Z,22.56
2019-02-10T03:03:24.834Z,22.54
2019-02-10T03:04:24.830Z,22.46
2019-02-10T03:05:24.871Z,22.44
2019-02-10T03:06:24.932Z,22.37
2019-02-10T03:07:25.003Z,22.43
2019-02-10T03:08:25.000Z,22.39
2019-02-10T03:09:25.087Z,22.41
2019-02-10T03:10:25.131Z,22.38
2019-02-10T03:11:25.161Z,22.38
2019-02-10T03:12:25.226Z,22.43
2019-02-10T03:13:25.268Z,22.35
2019-02-10T03:14:25.313Z,22.39
2019-02-10T03:15:25.364Z,22.35
2019-02-10T03:16:25.408Z,22.37
2019-02-10T03:17:25.445Z,22.35
2019-02-10T03:18:25.487Z,22.34
2019-02-10T03:19:25.568Z,22.38
2019-02-10T03:20:25.589Z,22.29
2019-02-10T03:21:25.636Z,22.22
2019-02-10T03:22:25.654Z,22.22
2019-02-10T03:23:25.751Z,22.23
2019-02-10T03:24:25.750Z,22.25
2019-02-10T03:25:25.810Z,22.28
2019-02-10T03:26:25.853Z,22.23
2019-02-10T03:27:25.893Z,22.14
2019-02-10T03:28:25.941Z,22.14
2019-02-10T03:29:26.029Z,22.14
2019-02-10T03:30:26.060Z,22.10
2019-02-10T03:31:26.080Z,22.14
2019-02-10T03:32:26.144Z,22.14
2019-02-10T03:33:26.203Z,22.01
2019-02-10T03:34:26.221Z,22.04
2019-02-10T03:35:26.290Z,21.98
2019-02-10T03:36:26.366Z,22.02
2019-02-10T03:37:27.497Z,21.98
2019-02-10T03:38:26.471Z,22.02
2019-02-10T03:39:26.479Z,21.94
2019-02-10T03:40:26.520Z,22.02
2019-02-10T03:41:26.645Z,21.92
2019-02-10T03:42:26.611Z,21.92
2019-02-10T03:43:26.640Z,21.91
2019-02-10T03:44:26.704Z,21.98
2019-02-10T03:45:26.731Z,21.94
2019-02-10T03:46:26.802Z,21.94
2019-02-10T03:47:26.834Z,21.88
2019-02-10T03:48:26.896Z,21.90
2019-02-10T03:49:26.967Z,21.90
2019-02-10T03:50:26.970Z,21.79
2019-02-10T03:51:27.008Z,21.90
2019-02-10T03:52:27.112Z,21.88
2019-02-10T03:53:27.098Z,21.88
2019-02-10T03:54:27.140Z,21.81
2019-02-10T03:55:27.227Z,21.85
2019-02-10T03:56:27.242Z,21.78
2019-02-10T03:57:27.303Z,21.75
2019-02-10T03:58:27.320Z,21.78
2019-02-10T03:59:27.382Z,21.66
2019-02-10T04:00:27.424Z,21.71
2019-02-10T04:01:27.490Z,21.71
2019-02-10T04:02:27.558Z,21.67
2019-02-10T04:03:27.607Z,21.67
2019-02-10T04:04:27.601Z,21.66
2019-02-10T04:05:27.653Z,21.66
2019-02-10T04:06:27.705Z,21.66
2019-02-10T04:07:35.627Z,21.67
2019-02-10T04:08:27.805Z,21.71
2019-02-10T04:09:27.881Z,21.64
2019-02-10T04:10:27.901Z,21.67
2019-02-10T04:11:27.945Z,21.57
2019-02-10T04:12:28.030Z,21.61
2019-02-10T04:13:28.030Z,21.54
2019-02-10T04:14:28.070Z,21.61
2019-02-10T04:15:28.110Z,21.56
2019-02-10T04:16:28.160Z,21.57
2019-02-10T04:17:28.220Z,21.59
2019-02-10T04:18:28.263Z,21.61
2019-02-10T04:19:28.319Z,21.60
2019-02-10T04:20:28.347Z,21.61
2019-02-10T04:21:28.426Z,21.63
2019-02-10T04:22:28.449Z,21.59
2019-02-10T04:23:28.475Z,21.57
2019-02-10T04:24:28.530Z,21.53
2019-02-10T04:25:28.587Z,21.50
2019-02-10T04:26:28.633Z,21.54
2019-02-10T04:27:28.700Z,21.51
2019-02-10T04:28:28.717Z,21.54
2019-02-10T04:29:28.740Z,21.51
2019-02-10T04:30:28.812Z,21.48
2019-02-10T04:31:28.867Z,21.42
2019-02-10T04:32:28.905Z,21.51
2019-02-10T04:33:28.931Z,21.44
2019-02-10T04:34:28.982Z,21.44
2019-02-10T04:35:29.023Z,21.35
2019-02-10T04:36:29.083Z,21.38
2019-02-10T04:37:29.114Z,21.41
2019-02-10T04:38:29.176Z,21.39
2019-02-10T04:39:29.213Z,21.29
2019-02-10T04:40:29.258Z,21.36
2019-02-10T04:41:29.314Z,21.39
2019-02-10T04:42:29.350Z,21.42
2019-02-10T04:43:29.398Z,21.34
2019-02-10T04:44:29.440Z,21.34
2019-02-10T04:45:29.482Z,21.32
2019-02-10T04:46:29.651Z,21.38
2019-02-10T04:47:29.585Z,21.34
2019-02-10T04:48:29.669Z,21.35
2019-02-10T04:49:29.676Z,21.34
2019-02-10T04:50:29.709Z,21.34
2019-02-10T04:51:29.767Z,21.30
2019-02-10T04:52:29.816Z,21.39
2019-02-10T04:53:29.866Z,21.32
2019-02-10T04:54:29.875Z,21.27
2019-02-10T04:55:29.981Z,21.26
2019-02-10T04:56:30.006Z,21.23
2019-02-10T04:57:30.051Z,21.13
2019-02-10T04:58:30.061Z,21.24
2019-02-10T04:59:30.113Z,21.24
2019-02-10T05:00:30.159Z,21.17
2019-02-10T05:01:30.317Z,21.21
2019-02-10T05:02:30.270Z,21.20
2019-02-10T05:03:30.306Z,21.13
2019-02-10T05:04:30.326Z,21.13
2019-02-10T05:05:30.399Z,21.14
2019-02-10T05:06:30.433Z,21.08
2019-02-10T05:07:30.493Z,21.11
2019-02-10T05:08:30.518Z,21.17
2019-02-10T05:09:30.583Z,21.14
2019-02-10T05:10:30.635Z,21.06
2019-02-10T05:11:30.684Z,21.14
2019-02-10T05:12:30.797Z,21.06
2019-02-10T05:13:30.769Z,20.98
2019-02-10T05:14:30.833Z,21.11
2019-02-10T05:15:30.856Z,21.11
2019-02-10T05:16:30.889Z,20.99
2019-02-10T05:17:30.944Z,21.09
2019-02-10T05:18:30.984Z,21.05
2019-02-10T05:19:31.037Z,21.02
2019-02-10T05:20:31.087Z,21.11
2019-02-10T05:21:31.134Z,21.11
2019-02-10T05:22:31.154Z,21.08
2019-02-10T05:23:31.223Z,21.06
2019-02-10T05:24:31.256Z,21.06
2019-02-10T05:25:31.337Z,21.01
2019-02-10T05:26:31.344Z,21.01
2019-02-10T05:27:31.410Z,21.06
2019-02-10T05:28:31.478Z,21.06
2019-02-10T05:29:31.481Z,21.01
2019-02-10T05:30:31.550Z,21.02
2019-02-10T05:31:31.583Z,21.08
2019-02-10T05:32:31.626Z,21.04
2019-02-10T05:33:31.662Z,21.08
2019-02-10T05:34:31.736Z,21.05
2019-02-10T05:35:31.751Z,21.08
2019-02-10T05:36:31.790Z,21.05
2019-02-10T05:37:31.870Z,21.04
2019-02-10T05:38:31.893Z,21.05
2019-02-10T05:39:31.937Z,21.02
2019-02-10T05:40:31.991Z,21.11
2019-02-10T05:41:32.030Z,21.13
2019-02-10T05:42:32.076Z,21.13
2019-02-10T05:43:32.146Z,21.08
2019-02-10T05:44:32.150Z,21.14
2019-02-10T05:45:32.222Z,21.05
2019-02-10T05:46:32.262Z,21.11
2019-02-10T05:47:32.307Z,21.06
2019-02-10T05:48:32.361Z,21.02
2019-02-10T05:49:32.371Z,21.09
2019-02-10T05:50:32.472Z,21.04
2019-02-10T05:51:32.494Z,20.99
2019-02-10T05:52:32.542Z,20.96
2019-02-10T05:53:32.567Z,21.01
2019-02-10T05:54:32.602Z,20.96
2019-02-10T05:55:32.779Z,20.95
2019-02-10T05:56:32.727Z,20.93
2019-02-10T05:57:32.769Z,20.99
2019-02-10T05:58:32.818Z,20.87
2019-02-10T05:59:32.861Z,20.95
2019-02-10T06:00:32.913Z,20.89
2019-02-10T06:01:32.945Z,20.90
2019-02-10T06:02:32.981Z,20.93
2019-02-10T06:03:33.015Z,20.98
2019-02-10T06:04:33.054Z,20.95
2019-02-10T06:05:33.118Z,20.90
2019-02-10T06:06:33.150Z,20.86
2019-02-10T06:07:33.253Z,20.84
2019-02-10T06:08:33.245Z,20.83
2019-02-10T06:09:33.293Z,20.83
2019-02-10T06:10:33.349Z,20.83
2019-02-10T06:11:33.398Z,20.83
2019-02-10T06:12:33.481Z,20.86
2019-02-10T06:13:33.523Z,20.98
2019-02-10T06:14:33.530Z,20.95
2019-02-10T06:15:33.608Z,20.95
2019-02-10T06:16:33.614Z,20.93
2019-02-10T06:17:33.699Z,20.83
2019-02-10T06:18:33.708Z,20.98
2019-02-10T06:19:33.808Z,20.81
2019-02-10T06:20:33.832Z,20.81
2019-02-10T06:21:33.828Z,20.83
2019-02-10T06:22:33.877Z,20.83
2019-02-10T06:23:33.918Z,20.74
2019-02-10T06:24:33.976Z,20.74
2019-02-10T06:25:34.036Z,20.86
2019-02-10T06:26:34.055Z,20.80
2019-02-10T06:27:34.114Z,20.83
2019-02-10T06:28:34.195Z,20.81
2019-02-10T06:29:34.206Z,20.81
2019-02-10T06:30:34.240Z,20.83
2019-02-10T06:31:34.284Z,20.81
2019-02-10T06:32:34.342Z,20.81
2019-02-10T06:33:34.419Z,20.81
2019-02-10T06:34:34.428Z,20.79
2019-02-10T06:35:34.463Z,20.79
2019-02-10T06:36:34.537Z,20.83
2019-02-10T06:37:34.562Z,20.83
2019-02-10T06:38:34.599Z,20.84
2019-02-10T06:39:34.644Z,20.76
2019-02-10T06:40:34.701Z,20.80
2019-02-10T06:41:34.765Z,20.77
2019-02-10T06:42:34.771Z,20.77
2019-02-10T06:43:34.825Z,20.81
2019-02-10T06:44:34.849Z,20.81
2019-02-10T06:45:34.927Z,20.76
2019-02-10T06:46:34.959Z,20.76
2019-02-10T06:47:35.018Z,20.76
2019-02-10T06:48:35.060Z,20.80
2019-02-10T06:49:35.105Z,20.77
2019-02-10T06:50:35.162Z,20.66
2019-02-10T06:51:35.179Z,20.62
2019-02-10T06:52:35.240Z,20.72
2019-02-10T06:53:35.275Z,20.69
2019-02-10T06:54:35.302Z,20.65
2019-02-10T06:55:35.360Z,20.74
2019-02-10T06:56:35.426Z,20.74
2019-02-10T06:57:35.500Z,20.69
2019-02-10T06:58:35.510Z,20.68
2019-02-10T06:59:35.636Z,20.68
2019-02-10T07:00:35.605Z,20.72
2019-02-10T07:01:35.653Z,20.71
2019-02-10T07:02:35.679Z,20.69
2019-02-10T07:03:35.748Z,20.65
2019-02-10T07:04:35.790Z,20.69
2019-02-10T07:05:35.822Z,20.68
2019-02-10T07:06:35.868Z,20.65
2019-02-10T07:07:35.909Z,20.71
2019-02-10T07:08:35.948Z,20.71
2019-02-10T07:09:36.004Z,20.71
2019-02-10T07:10:36.059Z,20.71
2019-02-10T07:11:36.114Z,20.69
2019-02-10T07:12:36.147Z,20.69
2019-02-10T07:13:36.174Z,20.69
2019-02-10T07:14:36.246Z,20.68
2019-02-10T07:15:36.287Z,20.69
2019-02-10T07:16:36.312Z,20.68
2019-02-10T07:17:36.373Z,20.69
2019-02-10T07:18:36.417Z,20.69
2019-02-10T07:19:36.461Z,20.76
2019-02-10T07:20:36.505Z,20.68
2019-02-10T07:21:36.549Z,20.74
2019-02-10T07:22:36.617Z,20.72
2019-02-10T07:23:36.639Z,20.68
2019-02-10T07:24:36.687Z,20.65
2019-02-10T07:25:36.731Z,20.66
2019-02-10T07:26:36.782Z,20.69
2019-02-10T07:27:36.799Z,20.65
2019-02-10T07:28:36.853Z,20.74
2019-02-10T07:29:36.917Z,20.62
2019-02-10T07:30:36.989Z,20.74
2019-02-10T07:31:36.987Z,20.71
2019-02-10T07:32:37.056Z,20.64
2019-02-10T07:33:37.068Z,20.69
2019-02-10T07:34:37.109Z,20.71
2019-02-10T07:35:37.188Z,20.64
2019-02-10T07:36:37.221Z,20.65
2019-02-10T07:37:37.277Z,20.66
2019-02-10T07:38:38.758Z,20.68
2019-02-10T07:39:37.393Z,20.61
2019-02-10T07:40:37.399Z,20.56
2019-02-10T07:41:37.457Z,20.64
2019-02-10T07:42:37.488Z,20.59
2019-02-10T07:43:37.524Z,20.61
2019-02-10T07:44:37.586Z,20.59
2019-02-10T07:45:37.650Z,20.58
2019-02-10T07:46:37.668Z,20.58
2019-02-10T07:47:37.721Z,20.62
2019-02-10T07:48:37.767Z,20.53
2019-02-10T07:49:37.805Z,20.56
2019-02-10T07:50:37.839Z,20.58
2019-02-10T07:51:37.985Z,20.54
2019-02-10T07:52:37.980Z,20.51
2019-02-10T07:53:37.967Z,20.53
2019-02-10T07:54:42.346Z,20.51
2019-02-10T07:55:38.088Z,20.56
2019-02-10T07:56:38.129Z,20.51
2019-02-10T07:57:38.151Z,20.59
2019-02-10T07:58:38.202Z,20.49
2019-02-10T07:59:38.236Z,20.50
2019-02-10T08:00:38.286Z,20.50
2019-02-10T08:01:38.350Z,20.47
2019-02-10T08:02:38.390Z,20.43
2019-02-10T08:03:38.428Z,20.53
2019-02-10T08:04:38.448Z,20.47
2019-02-10T08:05:38.533Z,20.47
2019-02-10T08:06:38.670Z,20.50
2019-02-10T08:07:38.615Z,20.46
2019-02-10T08:08:46.282Z,20.42
2019-02-10T08:09:38.685Z,20.46
2019-02-10T08:10:38.748Z,20.47
2019-02-10T08:11:38.785Z,20.41
2019-02-10T08:12:38.830Z,20.46
2019-02-10T08:13:38.861Z,20.42
2019-02-10T08:14:38.910Z,20.46
2019-02-10T08:15:38.948Z,20.41
2019-02-10T08:16:39.016Z,20.39
2019-02-10T08:17:39.062Z,20.46
2019-02-10T08:18:39.113Z,20.31
2019-02-10T08:19:39.146Z,20.38
2019-02-10T08:20:40.548Z,20.39
2019-02-10T08:21:39.277Z,20.38
2019-02-10T08:22:39.275Z,20.35
2019-02-10T08:23:39.353Z,20.35
2019-02-10T08:24:39.385Z,20.34
2019-02-10T08:25:39.430Z,20.35
2019-02-10T08:26:39.449Z,20.34
2019-02-10T08:27:39.479Z,20.34
2019-02-10T08:28:39.525Z,20.35
2019-02-10T08:29:39.616Z,20.33
2019-02-10T08:30:39.666Z,20.28
2019-02-10T08:31:39.686Z,20.31
2019-02-10T08:32:39.729Z,20.34
2019-02-10T08:33:39.765Z,20.30
2019-02-10T08:34:39.804Z,20.24
2019-02-10T08:35:39.872Z,20.31
2019-02-10T08:36:39.906Z,20.21
2019-02-10T08:37:39.986Z,20.25
2019-02-10T08:38:40.090Z,20.25
2019-02-10T08:39:40.046Z,20.33
2019-02-10T08:40:40.077Z,20.34
2019-02-10T08:41:40.135Z,20.21
2019-02-10T08:42:40.224Z,20.34
2019-02-10T08:43:40.256Z,20.35
2019-02-10T08:44:40.275Z,20.30
2019-02-10T08:45:40.337Z,20.31
2019-02-10T08:46:40.331Z,20.30
2019-02-10T08:47:40.409Z,20.34
2019-02-10T08:48:40.444Z,20.38
2019-02-10T08:49:40.490Z,20.39
2019-02-10T08:50:40.518Z,20.35
2019-02-10T08:51:40.557Z,20.35
2019-02-10T08:52:40.604Z,20.38
2019-02-10T08:53:40.672Z,20.33
2019-02-10T08:54:40.718Z,20.33
2019-02-10T08:55:40.755Z,20.35
2019-02-10T08:56:40.792Z,20.35
2019-02-10T08:57:40.857Z,20.38
2019-02-10T08:58:40.905Z,20.41
2019-02-10T08:59:40.937Z,20.41
2019-02-10T09:00:40.969Z,20.49
2019-02-10T09:01:41.022Z,20.39
2019-02-10T09:02:41.074Z,20.39
2019-02-10T09:03:41.127Z,20.42
2019-02-10T09:04:41.138Z,20.39
2019-02-10T09:05:41.195Z,20.39
2019-02-10T09:06:41.293Z,20.53
2019-02-10T09:07:41.298Z,20.46
2019-02-10T09:08:41.324Z,20.54
2019-02-10T09:09:41.375Z,20.54
2019-02-10T09:10:41.419Z,20.53
2019-02-10T09:11:41.462Z,20.51
2019-02-10T09:12:41.529Z,20.56
2019-02-10T09:13:41.597Z,20.59
2019-02-10T09:14:41.648Z,20.59
2019-02-10T09:15:41.706Z,20.61
2019-02-10T09:16:41.739Z,20.65
2019-02-10T09:17:41.751Z,20.66
2019-02-10T09:18:41.769Z,20.69
2019-02-10T09:19:41.834Z,20.72
2019-02-10T09:20:41.901Z,20.66
2019-02-10T09:21:41.911Z,20.72
2019-02-10T09:22:41.977Z,20.77
2019-02-10T09:23:42.000Z,20.71
2019-02-10T09:24:42.057Z,20.79
2019-02-10T09:25:42.119Z,20.83
2019-02-10T09:26:42.154Z,20.79
2019-02-10T09:27:42.182Z,20.79
2019-02-10T09:28:42.233Z,20.81
2019-02-10T09:29:42.288Z,20.95
2019-02-10T09:30:42.345Z,20.89
2019-02-10T09:31:42.380Z,20.98
2019-02-10T09:32:42.435Z,20.95
2019-02-10T09:33:42.471Z,20.96
2019-02-10T09:34:42.515Z,21.01
2019-02-10T09:35:42.560Z,20.99
2019-02-10T09:36:42.617Z,21.14
2019-02-10T09:37:42.656Z,21.04
2019-02-10T09:38:42.701Z,21.04
2019-02-10T09:39:42.744Z,21.14
2019-02-10T09:40:42.783Z,21.16
2019-02-10T09:41:42.842Z,21.19
2019-02-10T09:42:42.933Z,21.29
2019-02-10T09:43:42.934Z,21.35
2019-02-10T09:44:43.008Z,21.39
2019-02-10T09:45:43.062Z,21.46
2019-02-10T09:46:43.045Z,21.51
2019-02-10T09:47:43.130Z,21.56
2019-02-10T09:48:43.196Z,21.54
2019-02-10T09:49:43.247Z,21.59
2019-02-10T09:50:43.242Z,21.67
2019-02-10T09:51:43.302Z,21.76
2019-02-10T09:52:43.328Z,21.69
2019-02-10T09:53:43.392Z,21.81
2019-02-10T09:54:43.417Z,21.78
2019-02-10T09:55:43.518Z,21.82
2019-02-10T09:56:43.523Z,21.90
2019-02-10T09:57:43.579Z,21.88
2019-02-10T09:58:43.605Z,21.88
2019-02-10T09:59:43.656Z,21.94
2019-02-10T10:00:43.691Z,21.99
2019-02-10T10:01:43.758Z,22.16
2019-02-10T10:02:43.809Z,22.16
2019-02-10T10:03:43.829Z,22.19
2019-02-10T10:04:43.892Z,22.34
2019-02-10T10:05:43.937Z,22.39
2019-02-10T10:06:43.980Z,22.46
2019-02-10T10:07:44.050Z,22.56
2019-02-10T10:08:44.125Z,22.50
2019-02-10T10:09:44.124Z,22.60
2019-02-10T10:10:44.162Z,22.69
2019-02-10T10:11:44.207Z,22.72
2019-02-10T10:12:44.320Z,22.80
2019-02-10T10:13:44.310Z,22.99
2019-02-10T10:14:44.362Z,23.05
2019-02-10T10:15:44.390Z,23.19
2019-02-10T10:16:44.462Z,23.55
2019-02-10T10:17:44.524Z,24.08
2019-02-10T10:18:44.556Z,24.52
2019-02-10T10:19:44.591Z,24.79
2019-02-10T10:20:44.678Z,25.16
2019-02-10T10:21:44.684Z,25.19
2019-02-10T10:22:44.749Z,25.86
2019-02-10T10:23:44.783Z,26.15
2019-02-10T10:24:50.373Z,26.62
2019-02-10T10:25:44.875Z,27.32
2019-02-10T10:26:44.985Z,28.26
2019-02-10T10:27:44.999Z,28.87
2019-02-10T10:28:45.041Z,29.52
2019-02-10T10:29:45.086Z,30.11
2019-02-10T10:30:45.135Z,30.49
2019-02-10T10:31:45.213Z,30.80
2019-02-10T10:32:45.273Z,30.75
2019-02-10T10:33:45.350Z,30.76
2019-02-10T10:34:45.342Z,30.64
2019-02-10T10:35:45.397Z,30.52
2019-02-10T10:36:45.447Z,29.99
2019-02-10T10:37:45.486Z,30.26
2019-02-10T10:38:45.555Z,30.61
2019-02-10T10:39:45.589Z,30.75
2019-02-10T10:40:45.673Z,31.02
2019-02-10T10:41:45.713Z,31.24
2019-02-10T10:42:45.764Z,31.61
2019-02-10T10:43:45.831Z,32.00
2019-02-10T10:44:45.878Z,32.30
2019-02-10T10:45:45.941Z,32.30
2019-02-10T10:46:46.054Z,32.70
2019-02-10T10:47:46.030Z,33.06
2019-02-10T10:48:46.106Z,33.68
2019-02-10T10:49:46.153Z,34.20
2019-02-10T10:50:46.220Z,34.45
2019-02-10T10:51:46.254Z,34.50
2019-02-10T10:52:46.319Z,34.57
2019-02-10T10:53:46.384Z,34.95
2019-02-10T10:54:46.438Z,35.01
2019-02-10T10:55:46.499Z,35.15
2019-02-10T10:56:46.544Z,35.13
2019-02-10T10:57:46.603Z,35.10
2019-02-10T10:58:46.662Z,34.86
2019-02-10T10:59:46.701Z,34.66
2019-02-10T11:00:46.781Z,34.60
2019-02-10T11:01:46.813Z,34.58
2019-02-10T11:02:46.894Z,34.77
2019-02-10T11:03:46.954Z,34.80
2019-02-10T11:04:46.970Z,35.35
2019-02-10T11:05:47.079Z,35.70
2019-02-10T11:06:47.105Z,35.64
2019-02-10T11:07:47.161Z,35.67
2019-02-10T11:08:47.235Z,35.95
2019-02-10T11:09:47.276Z,36.30
2019-02-10T11:10:47.390Z,36.31
2019-02-10T11:11:47.457Z,36.76
2019-02-10T11:12:47.475Z,36.86
2019-02-10T11:13:47.515Z,36.67
2019-02-10T11:14:47.578Z,36.51
2019-02-10T11:15:47.628Z,36.90
2019-02-10T11:16:47.729Z,37.36
2019-02-10T11:17:47.729Z,37.31
2019-02-10T11:18:47.804Z,37.55
2019-02-10T11:19:47.869Z,37.71
2019-02-10T11:20:47.923Z,37.54
2019-02-10T11:21:47.989Z,37.35
2019-02-10T11:22:48.047Z,37.41
2019-02-10T11:23:48.108Z,37.32
2019-02-10T11:24:48.171Z,37.16
2019-02-10T11:25:48.224Z,37.17
2019-02-10T11:26:48.318Z,36.77
2019-02-10T11:27:48.356Z,36.91
2019-02-10T11:28:48.389Z,37.31
2019-02-10T11:29:48.491Z,37.29
2019-02-10T11:30:48.524Z,37.41
2019-02-10T11:31:48.562Z,37.05
2019-02-10T11:32:48.652Z,37.04
2019-02-10T11:33:48.697Z,37.23
2019-02-10T11:34:48.772Z,36.79
2019-02-10T11:35:48.827Z,36.95
2019-02-10T11:36:48.883Z,37.58
2019-02-10T11:37:48.942Z,37.81
2019-02-10T11:38:49.008Z,37.78
2019-02-10T11:39:49.093Z,38.26
2019-02-10T11:40:49.124Z,38.66
2019-02-10T11:41:49.164Z,38.99
2019-02-10T11:42:49.292Z,39.14
2019-02-10T11:43:49.329Z,39.10
2019-02-10T11:44:49.396Z,39.14
2019-02-10T11:45:49.415Z,38.33
2019-02-10T11:46:49.467Z,37.74
2019-02-10T11:47:49.524Z,37.47
2019-02-10T11:48:49.590Z,37.61
2019-02-10T11:49:49.693Z,38.05
2019-02-10T11:50:49.714Z,37.01
2019-02-10T11:51:49.797Z,36.64
2019-02-10T11:52:49.827Z,36.79
2019-02-10T11:53:49.905Z,36.70
2019-02-10T11:54:49.955Z,36.85
2019-02-10T11:55:50.053Z,36.95
2019-02-10T11:56:50.085Z,36.75
2019-02-10T11:57:50.150Z,36.72
2019-02-10T11:58:50.216Z,36.68
2019-02-10T11:59:50.257Z,36.83
2019-02-10T12:00:50.326Z,36.65
2019-02-10T12:01:50.427Z,36.43
2019-02-10T12:02:50.487Z,36.65
2019-02-10T12:03:50.502Z,36.54
2019-02-10T12:04:50.613Z,36.30
2019-02-10T12:05:50.614Z,36.72
2019-02-10T12:06:50.705Z,36.82
2019-02-10T12:07:50.715Z,37.02
2019-02-10T12:08:50.810Z,36.80
2019-02-10T12:09:51.864Z,36.94
2019-02-10T12:10:50.941Z,37.42
2019-02-10T12:11:50.975Z,37.33
2019-02-10T12:12:51.040Z,37.35
2019-02-10T12:13:51.109Z,37.31
2019-02-10T12:14:51.168Z,37.02
2019-02-10T12:15:51.234Z,37.42
2019-02-10T12:16:51.297Z,37.81
2019-02-10T12:17:51.349Z,38.52
2019-02-10T12:18:51.409Z,38.34
2019-02-10T12:19:51.476Z,37.92
2019-02-10T12:20:51.527Z,38.04
2019-02-10T12:21:51.596Z,38.46
2019-02-10T12:22:51.665Z,38.58
2019-02-10T12:23:51.682Z,37.67
2019-02-10T12:24:51.815Z,37.41
2019-02-10T12:25:51.835Z,37.92
2019-02-10T12:26:51.897Z,38.55
2019-02-10T12:27:51.951Z,39.09
2019-02-10T12:28:52.049Z,39.20
2019-02-10T12:29:52.084Z,39.15
2019-02-10T12:30:52.145Z,38.89
2019-02-10T12:31:52.194Z,38.95
2019-02-10T12:32:52.320Z,39.06
2019-02-10T12:33:52.353Z,38.90
2019-02-10T12:34:52.354Z,38.66
2019-02-10T12:35:58.204Z,37.83
2019-02-10T12:36:52.500Z,37.80
2019-02-10T12:37:52.568Z,37.62
2019-02-10T12:38:52.628Z,37.86
2019-02-10T12:39:59.675Z,37.93
2019-02-10T12:40:52.743Z,37.17
2019-02-10T12:41:52.820Z,37.48
2019-02-10T12:42:52.874Z,38.04
2019-02-10T12:43:52.931Z,38.44
2019-02-10T12:44:53.001Z,38.23
2019-02-10T12:45:53.067Z,38.46
2019-02-10T12:46:53.133Z,38.71
2019-02-10T12:47:53.194Z,38.73
2019-02-10T12:48:53.255Z,38.80
2019-02-10T12:49:53.292Z,38.34
2019-02-10T12:50:53.351Z,37.71
2019-02-10T12:51:53.417Z,38.24
2019-02-10T12:52:53.501Z,38.48